TimePST,TemperatureF,Dew PointF,Humidity,Sea Level PressureIn,VisibilityMPH,Wind Direction,Wind SpeedMPH,Gust SpeedMPH,PrecipitationIn,Events,Conditions,WindDirDegrees,DateUTC
12:15 AM,46.4,44.6,93,29.79,10.0,SE,6.9,-,N/A,,Unknown,140,2012-11-28 08:15:00
12:35 AM,46.4,44.6,93,29.78,10.0,SE,5.8,-,N/A,,Unknown,140,2012-11-28 08:35:00
12:55 AM,46.4,44.6,93,29.77,10.0,ESE,5.8,-,N/A,,Unknown,110,2012-11-28 08:55:00
1:15 AM,46.4,44.6,93,29.77,10.0,SSE,10.4,-,N/A,,Unknown,160,2012-11-28 09:15:00
1:35 AM,46.4,44.6,93,29.77,10.0,SE,9.2,-,N/A,,Unknown,140,2012-11-28 09:35:00
1:55 AM,46.4,44.6,93,29.76,10.0,SSE,5.8,-,N/A,,Unknown,150,2012-11-28 09:55:00
2:15 AM,46.4,44.6,93,29.76,10.0,SE,11.5,-,N/A,,Unknown,140,2012-11-28 10:15:00
2:35 AM,46.4,44.6,93,29.75,10.0,SSE,10.4,-,N/A,,Unknown,150,2012-11-28 10:35:00
2:55 AM,46.4,44.6,93,29.75,10.0,SSE,10.4,-,N/A,,Unknown,150,2012-11-28 10:55:00
3:15 AM,46.4,44.6,93,29.73,10.0,SSE,8.1,-,N/A,,Unknown,150,2012-11-28 11:15:00
3:35 AM,46.4,44.6,93,29.72,10.0,SSE,10.4,-,N/A,,Unknown,150,2012-11-28 11:35:00
3:55 AM,46.4,44.6,93,29.70,10.0,SSE,8.1,-,N/A,,Unknown,150,2012-11-28 11:55:00
4:15 AM,46.4,44.6,93,29.69,10.0,SE,9.2,-,N/A,,Unknown,140,2012-11-28 12:15:00
4:35 AM,48.2,44.6,87,29.68,10.0,SSE,9.2,-,N/A,,Unknown,150,2012-11-28 12:35:00
4:55 AM,48.2,44.6,87,29.64,10.0,SE,5.8,-,N/A,,Unknown,130,2012-11-28 12:55:00
5:15 AM,50.0,44.6,82,29.62,10.0,ESE,10.4,-,N/A,,Unknown,110,2012-11-28 13:15:00
5:35 AM,48.2,46.4,93,29.59,10.0,ESE,8.1,-,N/A,,Unknown,120,2012-11-28 13:35:00
5:55 AM,48.2,46.4,93,29.59,10.0,SE,9.2,-,N/A,,Unknown,130,2012-11-28 13:55:00
6:15 AM,48.2,44.6,87,29.60,10.0,SSE,6.9,-,N/A,,Unknown,150,2012-11-28 14:15:00
6:35 AM,48.2,44.6,87,29.59,10.0,SSE,8.1,-,N/A,,Unknown,150,2012-11-28 14:35:00
6:55 AM,48.2,44.6,87,29.58,10.0,SE,9.2,-,N/A,,Mostly Cloudy,140,2012-11-28 14:55:00
7:15 AM,50.0,44.6,82,29.57,10.0,SE,6.9,-,N/A,,Mostly Cloudy,130,2012-11-28 15:15:00
7:35 AM,50.0,44.6,82,29.56,10.0,ESE,6.9,-,N/A,,Mostly Cloudy,120,2012-11-28 15:35:00
7:55 AM,55.4,44.6,67,29.57,10.0,SSE,13.8,-,N/A,,Mostly Cloudy,150,2012-11-28 15:55:00
8:15 AM,53.6,46.4,77,29.57,10.0,SSE,10.4,-,N/A,,Mostly Cloudy,160,2012-11-28 16:15:00
8:35 AM,55.4,48.2,77,29.56,10.0,SE,9.2,-,N/A,,Mostly Cloudy,130,2012-11-28 16:35:00
8:55 AM,55.4,50.0,82,29.57,10.0,SE,11.5,-,N/A,,Mostly Cloudy,140,2012-11-28 16:55:00
9:15 AM,55.4,50.0,82,29.55,10.0,SE,12.7,-,0.01,,Mostly Cloudy,130,2012-11-28 17:15:00
9:35 AM,57.2,48.2,72,29.55,10.0,SE,11.5,-,0.01,,Mostly Cloudy,140,2012-11-28 17:35:00
9:55 AM,57.2,48.2,72,29.55,10.0,SE,11.5,-,0.01,,Overcast,140,2012-11-28 17:55:00
10:15 AM,60.8,48.2,63,29.56,10.0,SSE,12.7,20.7,N/A,,Overcast,150,2012-11-28 18:15:00
10:35 AM,60.8,48.2,63,29.57,10.0,SSE,17.3,23.0,N/A,,Overcast,160,2012-11-28 18:35:00
10:55 AM,60.8,48.2,63,29.58,10.0,SSE,15.0,21.9,N/A,,Mostly Cloudy,160,2012-11-28 18:55:00
11:15 AM,60.8,48.2,63,29.59,10.0,South,13.8,21.9,N/A,,Mostly Cloudy,170,2012-11-28 19:15:00
11:35 AM,60.8,48.2,63,29.59,10.0,South,15.0,24.2,N/A,,Mostly Cloudy,180,2012-11-28 19:35:00
11:55 AM,60.8,50.0,68,29.59,10.0,South,13.8,24.2,N/A,,Overcast,180,2012-11-28 19:55:00
12:15 PM,60.8,50.0,68,29.58,10.0,South,19.6,26.5,N/A,,Overcast,170,2012-11-28 20:15:00
12:35 PM,60.8,48.2,63,29.58,10.0,SSE,17.3,24.2,N/A,,Overcast,160,2012-11-28 20:35:00
12:55 PM,60.8,48.2,63,29.60,10.0,South,15.0,24.2,N/A,,Overcast,180,2012-11-28 20:55:00
1:15 PM,60.8,48.2,63,29.59,10.0,SSE,10.4,20.7,N/A,,Overcast,160,2012-11-28 21:15:00
1:35 PM,60.8,48.2,63,29.60,10.0,South,17.3,31.1,N/A,,Overcast,190,2012-11-28 21:35:00
1:55 PM,59.0,48.2,67,29.62,10.0,South,23.0,28.8,N/A,,Overcast,180,2012-11-28 21:55:00
2:15 PM,60.8,48.2,63,29.62,10.0,South,15.0,26.5,N/A,,Overcast,170,2012-11-28 22:15:00
2:35 PM,57.2,51.8,82,29.62,10.0,South,11.5,24.2,N/A,,Overcast,170,2012-11-28 22:35:00
2:55 PM,59.0,50.0,72,29.63,10.0,South,18.4,25.3,N/A,,Overcast,170,2012-11-28 22:55:00
3:15 PM,57.2,50.0,77,29.64,10.0,South,15.0,25.3,N/A,,Overcast,180,2012-11-28 23:15:00
3:35 PM,57.2,51.8,82,29.65,10.0,SSE,15.0,20.7,N/A,,Overcast,160,2012-11-28 23:35:00
3:55 PM,57.2,51.8,82,29.65,9.0,South,17.3,-,N/A,,Overcast,180,2012-11-28 23:55:00
4:15 PM,55.4,51.8,88,29.66,10.0,South,9.2,18.4,0.01,,Unknown,170,2012-11-29 00:15:00
4:35 PM,55.4,53.6,94,29.68,1.5,SSE,11.5,23.0,0.04,,Unknown,160,2012-11-29 00:35:00
4:55 PM,53.6,53.6,100,29.68,3.0,SSE,9.2,-,0.07,,Mostly Cloudy,150,2012-11-29 00:55:00
5:15 PM,53.6,51.8,94,29.69,3.0,SSE,8.1,-,N/A,,Mostly Cloudy,150,2012-11-29 01:15:00
5:35 PM,53.6,53.6,100,29.70,3.0,SSE,11.5,-,0.01,,Mostly Cloudy,160,2012-11-29 01:35:00
5:55 PM,53.6,53.6,100,29.70,2.0,SE,8.1,-,0.04,,Mostly Cloudy,140,2012-11-29 01:55:00
6:15 PM,53.6,53.6,100,29.70,2.0,SE,9.2,-,N/A,,Mostly Cloudy,140,2012-11-29 02:15:00
6:35 PM,53.6,51.8,94,29.70,4.0,SE,8.1,-,0.01,,Scattered Clouds,140,2012-11-29 02:35:00
6:55 PM,51.8,50.0,94,29.69,10.0,North,-9999.0,-,0.01,,Scattered Clouds,0,2012-11-29 02:55:00
7:15 PM,53.6,51.8,94,29.69,10.0,North,-9999.0,-,N/A,,Scattered Clouds,0,2012-11-29 03:15:00
7:35 PM,53.6,51.8,94,29.69,10.0,North,-9999.0,-,N/A,,Scattered Clouds,0,2012-11-29 03:35:00
7:55 PM,51.8,51.8,100,29.69,10.0,SSE,8.1,-,N/A,,Partly Cloudy,150,2012-11-29 03:55:00
8:15 PM,51.8,50.0,94,29.69,10.0,SSE,8.1,-,N/A,,Partly Cloudy,160,2012-11-29 04:15:00
8:35 PM,51.8,51.8,100,29.68,10.0,SSE,5.8,-,N/A,,Partly Cloudy,160,2012-11-29 04:35:00
8:55 PM,51.8,50.0,94,29.69,10.0,SE,4.6,-,N/A,,Partly Cloudy,130,2012-11-29 04:55:00
9:15 PM,51.8,50.0,94,29.68,10.0,SSE,6.9,-,N/A,,Unknown,150,2012-11-29 05:15:00
9:35 PM,50.0,48.2,94,29.68,10.0,SSE,5.8,-,N/A,,Unknown,150,2012-11-29 05:35:00
9:55 PM,51.8,48.2,88,29.67,10.0,SSE,8.1,-,N/A,,Unknown,150,2012-11-29 05:55:00
10:15 PM,51.8,48.2,88,29.66,10.0,SSE,5.8,-,N/A,,Unknown,160,2012-11-29 06:15:00
10:35 PM,50.0,48.2,94,29.65,10.0,SSE,8.1,-,N/A,,Unknown,150,2012-11-29 06:35:00
10:55 PM,51.8,48.2,88,29.64,10.0,SSE,8.1,-,N/A,,Unknown,160,2012-11-29 06:55:00
11:15 PM,51.8,46.4,82,29.64,10.0,SSE,8.1,-,N/A,,Unknown,150,2012-11-29 07:15:00
11:35 PM,51.8,46.4,82,29.63,10.0,South,4.6,-,N/A,,Unknown,170,2012-11-29 07:35:00
11:55 PM,51.8,46.4,82,29.62,10.0,SSE,6.9,-,N/A,,Unknown,150,2012-11-29 07:55:00